OOCL Long Beach — VRYO4 — position and weather

sailwx.info

Track history (hours):
 
Tides and Currents Weather Stations Pressure Air Temp Water Temp Dewpoint Dewpoint Depression Visibility Wind Speed Wind Dir Waves Ship Positions

OOCL Long Beach

Last reported at 2016-Aug-25 14:30 UTC. Time now 2016-Aug-25 15:00 UTC.
Position N 33°44' W 118°16'.

Length 323 m; beam 42.8 m; draft 14.5 m.

Type: Cargo ship. MMSI: 477316000.

Date/timePositionNaut miles runAvg speedWind from/ knotsBaromVisibWave heightAir tempDewpointWater temp
2016-Aug-25 14:30N 33°44' W 118°16'0 0.3
2016-Aug-25 13:33N 33°43' W 118°16'5 5.4
2016-Aug-25 12:33N 33°38' W 118°14'7 7.3
2016-Aug-25 11:33N 33°36' W 118°22'8 8.3
2016-Aug-25 10:33N 33°37' W 118°32'9 8.6
2016-Aug-25 09:33N 33°37' W 118°42'10 9.7
2016-Aug-25 08:33N 33°38' W 118°54'1111.0
2016-Aug-25 07:32N 33°37' W 119°07'1111.4
2016-Aug-25 06:33N 33°35' W 119°20'2613.1
2016-Aug-25 04:33N 33°31' W 119°51'1414.3
2016-Aug-25 03:33N 33°30' W 120°08'1514.7
2016-Aug-25 02:34N 33°30' W 120°26'1515.0
2016-Aug-25 01:33N 33°30' W 120°44'1515.0
2016-Aug-25 00:33N 33°32' W 121°02'1515.2
2016-Aug-24 23:33N 33°33' W 121°20'1010.5
2016-Aug-24 22:33N 33°33' W 121°33'1514.5
2016-Aug-24 21:33N 33°33' W 121°50'1514.6
2016-Aug-24 20:33N 33°34' W 122°08'1514.6
2016-Aug-24 19:33N 33°35' W 122°25'1514.7
2016-Aug-24 18:33N 33°36' W 122°43'3615.0
2016-Aug-24 16:07N 33°38' W 123°26'915.1
2016-Aug-24 15:33N 33°38' W 123°37'9214.4
2016-Aug-24 09:10N 34°01' W 125°25'915.6
2016-Aug-24 08:33N 34°06' W 125°34'3715.7
2016-Aug-24 06:13N 34°29' W 126°09'7117.1
2016-Aug-24 02:05N 35°10' W 127°19'1519.1
2016-Aug-24 01:19N 35°19' W 127°34'  
Track history (hours):
 
Tides and Currents Weather Stations Pressure Air Temp Water Temp Dewpoint Dewpoint Depression Visibility Wind Speed Wind Dir Waves Ship Positions

OOCL Long Beach

Last reported at 2016-Aug-25 14:30 UTC. Time now 2016-Aug-25 15:00 UTC.
Position N 33°44' W 118°16'.

Length 323 m; beam 42.8 m; draft 14.5 m.

Type: Cargo ship. MMSI: 477316000.

Date/timePositionNaut miles runAvg speedWind from/ knotsBaromVisibWave heightAir tempDewpointWater temp
2016-Aug-25 14:30N 33°44' W 118°16'0 0.3
2016-Aug-25 13:33N 33°43' W 118°16'5 5.4
2016-Aug-25 12:33N 33°38' W 118°14'7 7.3
2016-Aug-25 11:33N 33°36' W 118°22'8 8.3
2016-Aug-25 10:33N 33°37' W 118°32'9 8.6
2016-Aug-25 09:33N 33°37' W 118°42'10 9.7
2016-Aug-25 08:33N 33°38' W 118°54'1111.0
2016-Aug-25 07:32N 33°37' W 119°07'1111.4
2016-Aug-25 06:33N 33°35' W 119°20'2613.1
2016-Aug-25 04:33N 33°31' W 119°51'1414.3
2016-Aug-25 03:33N 33°30' W 120°08'1514.7
2016-Aug-25 02:34N 33°30' W 120°26'1515.0
2016-Aug-25 01:33N 33°30' W 120°44'1515.0
2016-Aug-25 00:33N 33°32' W 121°02'1515.2
2016-Aug-24 23:33N 33°33' W 121°20'1010.5
2016-Aug-24 22:33N 33°33' W 121°33'1514.5
2016-Aug-24 21:33N 33°33' W 121°50'1514.6
2016-Aug-24 20:33N 33°34' W 122°08'1514.6
2016-Aug-24 19:33N 33°35' W 122°25'1514.7
2016-Aug-24 18:33N 33°36' W 122°43'3615.0
2016-Aug-24 16:07N 33°38' W 123°26'915.1
2016-Aug-24 15:33N 33°38' W 123°37'9214.4
2016-Aug-24 09:10N 34°01' W 125°25'915.6
2016-Aug-24 08:33N 34°06' W 125°34'3715.7
2016-Aug-24 06:13N 34°29' W 126°09'7117.1
2016-Aug-24 02:05N 35°10' W 127°19'1519.1
2016-Aug-24 01:19N 35°19' W 127°34'  

Dump ship's entire track history